Nearby METAR Reports

 

RPLL - Ninoy Aquino Int, Philippines
Distance from station: S 15km
Updated: 01/22/2020 12:00pm
Few Clouds
Few Clouds
 Wind from ESE
Wind: ESE 20 km/h
Temperature: 30°C
Heat Index: 31°C
Dew Point: 19°C
Humidity: 52%
Barometer: 1017 hPa
Clouds: Few Clouds
Visibility: 10 km
Cloud details: Few Clouds 762 m
2020/01/22 04:00 RPLL 220400Z 11011KT 070V160 9999 FEW025 30/19 Q1017 NOSIG RMK A3003
RPLC - Angeles/Pampanga, Philippines
Distance from station: NW 71km
Updated: 01/22/2020 12:00pm
Mostly cloudy
Mostly cloudy
 Wind from ENE
Wind: ENE 19 km/h
Temperature: 30°C
Heat Index: 31°C
Dew Point: 19°C
Humidity: 52%
Barometer: 1018 hPa
Clouds: Mostly cloudy
Visibility: 10 km
Cloud details: Partly cloudy 610 m
Mostly cloudy 9144 m
2020/01/22 04:00 RPLC 220400Z 07010KT 9999 SCT020 BKN300 30/19 Q1018 NOSIG RMK A3006
 
RPLB - Olongapo/Subic, Philippines
Distance from station: WNW 78km
Updated: 01/22/2020 12:00pm
Few Clouds
Few Clouds
 Wind from E
Wind: E 24 km/h
Temperature: 31°C
Heat Index: 32°C
Dew Point: 18°C
Humidity: 46%
Barometer: 1017 hPa
Clouds: Few Clouds
Visibility: 10 km
Cloud details: Few Clouds 610 m
2020/01/22 04:00 RPLB 220400Z 09013KT 040V120 9999 FEW020 31/18 Q1017 NOSIG RMK A3003
RPMR - Romblon/Tablas I, Philippines
Distance from station: SSE 270km
Updated: 01/22/2020 12:00pm
Few Clouds
Few Clouds
 Wind from NNE
Wind: NNE 15 km/h
Temperature: 32°C
Heat Index: 34°C
Dew Point: 20°C
Humidity: 49%
Barometer: 1015 hPa
Clouds: Few Clouds
Visibility: 10 km
Cloud details: Few Clouds 549 m
2020/01/22 04:00 RPMR 220400Z 02008KT 9999 FEW018 32/20 Q1015 NOSIG RMK A2997
 
RPLI - Laoag Intl(Ph-Ar, Philippines
Distance from station: N 394km
Updated: 01/22/2020 12:00pm
Few Clouds
Few Clouds
 Wind from NW
Wind: NW 11 km/h
Temperature: 28°C
Heat Index: 29°C
Dew Point: 20°C
Humidity: 62%
Barometer: 1017 hPa
Clouds: Few Clouds
Visibility: 10 km
Cloud details: Few Clouds 549 m
2020/01/22 04:00 RPLI 220400Z 31006KT 270V340 9999 FEW018 28/20 Q1017 NOSIG RMK A3003
RPVM - Mactan-Cebu, Philippines
Distance from station: SE 582km
Updated: 01/22/2020 12:00pm
Partly cloudy
Partly cloudy
 Wind from NE
Wind: NE 11 km/h
Temperature: 27°C
Heat Index: 30°C
Dew Point: 23°C
Humidity: 79%
Barometer: 1016 hPa
Clouds: Partly cloudy
Visibility: 10 km
Cloud details: Few Clouds 549 m
Partly cloudy 3048 m
2020/01/22 04:00 RPVM 220400Z 04006KT 9999 FEW018CB SCT100 27/23 Q1016 NOSIG RMK A3000
 
RPVP - Puerto Princesa, Philippines
Distance from station: SSW 598km
Updated: 01/22/2020 12:00pm
Few Clouds
Few Clouds
 Wind from E
Wind: E 22 km/h
Temperature: 32°C
Heat Index: 36°C
Dew Point: 22°C
Humidity: 55%
Barometer: 1016 hPa
Clouds: Few Clouds
Visibility: 10 km
Cloud details: Few Clouds 579 m
2020/01/22 04:00 RPVP 220400Z 09012KT 9999 FEW019 32/22 Q1016 RMK A3003
RPVD - Dumaguete/Negros, Philippines
Distance from station: SSE 643km
Updated: 01/22/2020 12:00pm
Partly cloudy
Partly cloudy
 Wind from N
Wind: N 15 km/h
Temperature: 30°C
Heat Index: 34°C
Dew Point: 23°C
Humidity: 66%
Barometer: 1015 hPa
Clouds: Partly cloudy
Visibility: 10 km
Cloud details: Partly cloudy 457 m
2020/01/22 04:00 RPVD 220400Z 36008KT 9999 SCT015 30/23 Q1015 RMK A2997
 
RPMZ - Zamboanga (civ/A, Philippines
Distance from station: S 868km
Updated: 01/22/2020 12:00pm
Mostly cloudy
Mostly cloudy
 Wind from E
Wind: E 22 km/h
Temperature: 31°C
Heat Index: 33°C
Dew Point: 19°C
Humidity: 49%
Barometer: 1014 hPa
Clouds: Mostly cloudy
Visibility: 10 km
Cloud details: Few Clouds 518 m
Mostly cloudy 9144 m
2020/01/22 04:00 RPMZ 220400Z 08012KT 040V110 9999 FEW017 BKN300 31/19 Q1014 RMK A2994
RPMD - Davao/Francisco, Philippines
Distance from station: SSE 980km
Updated: 01/22/2020 12:00pm
Mostly cloudy
Mostly cloudy
 Wind from NNE
Wind: NNE 15 km/h
Temperature: 30°C
Heat Index: 33°C
Dew Point: 22°C
Humidity: 62%
Barometer: 1015 hPa
Clouds: Mostly cloudy
Visibility: 10 km
Cloud details: Partly cloudy 488 m
Mostly cloudy 2743 m
2020/01/22 04:00 RPMD 220400Z 02008KT 9999 SCT016 BKN090 30/22 Q1015 RMK A2997